sensor_id;sensor_type;location;lat;lon;timestamp;P1;durP1;ratioP1;P2;durP2;ratioP2
19883;SDS011;10104;50.732;10.174;2023-04-19T00:01:48;17.97;;;16.07;;
19883;SDS011;10104;50.732;10.174;2023-04-19T00:04:09;19.97;;;17.23;;
19883;SDS011;10104;50.732;10.174;2023-04-19T00:06:31;18.20;;;15.93;;
19883;SDS011;10104;50.732;10.174;2023-04-19T00:08:52;20.70;;;15.70;;
19883;SDS011;10104;50.732;10.174;2023-04-19T00:11:14;19.50;;;16.57;;
19883;SDS011;10104;50.732;10.174;2023-04-19T00:13:36;17.27;;;15.17;;
19883;SDS011;10104;50.732;10.174;2023-04-19T00:15:57;18.37;;;15.63;;
19883;SDS011;10104;50.732;10.174;2023-04-19T00:18:19;16.70;;;14.97;;
19883;SDS011;10104;50.732;10.174;2023-04-19T00:20:41;17.03;;;15.03;;
19883;SDS011;10104;50.732;10.174;2023-04-19T00:23:03;20.43;;;15.17;;
19883;SDS011;10104;50.732;10.174;2023-04-19T00:25:24;19.07;;;15.17;;
19883;SDS011;10104;50.732;10.174;2023-04-19T00:27:46;15.83;;;14.17;;
19883;SDS011;10104;50.732;10.174;2023-04-19T00:30:07;17.77;;;14.47;;
19883;SDS011;10104;50.732;10.174;2023-04-19T00:32:29;16.73;;;13.70;;
19883;SDS011;10104;50.732;10.174;2023-04-19T00:34:51;17.30;;;13.90;;
19883;SDS011;10104;50.732;10.174;2023-04-19T00:37:12;15.77;;;13.13;;
19883;SDS011;10104;50.732;10.174;2023-04-19T00:39:34;16.80;;;13.30;;
19883;SDS011;10104;50.732;10.174;2023-04-19T00:41:55;16.53;;;13.07;;
19883;SDS011;10104;50.732;10.174;2023-04-19T00:44:20;15.87;;;13.07;;
19883;SDS011;10104;50.732;10.174;2023-04-19T00:46:41;17.50;;;11.97;;
19883;SDS011;10104;50.732;10.174;2023-04-19T00:49:04;15.23;;;11.80;;
19883;SDS011;10104;50.732;10.174;2023-04-19T00:51:26;14.37;;;12.33;;
19883;SDS011;10104;50.732;10.174;2023-04-19T00:53:47;17.57;;;12.47;;
19883;SDS011;10104;50.732;10.174;2023-04-19T00:56:09;14.33;;;11.23;;
19883;SDS011;10104;50.732;10.174;2023-04-19T00:58:31;14.00;;;11.00;;
19883;SDS011;10104;50.732;10.174;2023-04-19T01:00:53;15.30;;;11.27;;
19883;SDS011;10104;50.732;10.174;2023-04-19T01:03:15;14.13;;;10.17;;
19883;SDS011;10104;50.732;10.174;2023-04-19T01:05:37;14.40;;;11.07;;
19883;SDS011;10104;50.732;10.174;2023-04-19T01:07:58;13.03;;;10.77;;
19883;SDS011;10104;50.732;10.174;2023-04-19T01:10:20;14.67;;;10.07;;
19883;SDS011;10104;50.732;10.174;2023-04-19T01:12:41;13.03;;;10.43;;
19883;SDS011;10104;50.732;10.174;2023-04-19T01:15:03;11.13;;;9.63;;
19883;SDS011;10104;50.732;10.174;2023-04-19T01:17:25;13.23;;;9.80;;
19883;SDS011;10104;50.732;10.174;2023-04-19T01:19:47;13.33;;;9.43;;
19883;SDS011;10104;50.732;10.174;2023-04-19T01:22:09;13.27;;;9.60;;
19883;SDS011;10104;50.732;10.174;2023-04-19T01:24:30;12.07;;;9.77;;
19883;SDS011;10104;50.732;10.174;2023-04-19T01:26:52;12.87;;;9.47;;
19883;SDS011;10104;50.732;10.174;2023-04-19T01:29:13;11.37;;;8.73;;
19883;SDS011;10104;50.732;10.174;2023-04-19T01:31:35;9.83;;;8.83;;
19883;SDS011;10104;50.732;10.174;2023-04-19T01:33:57;14.00;;;8.97;;
19883;SDS011;10104;50.732;10.174;2023-04-19T01:36:18;11.33;;;8.63;;
19883;SDS011;10104;50.732;10.174;2023-04-19T01:38:40;10.70;;;8.57;;
19883;SDS011;10104;50.732;10.174;2023-04-19T01:41:01;11.10;;;8.10;;
19883;SDS011;10104;50.732;10.174;2023-04-19T01:43:23;11.43;;;8.57;;
19883;SDS011;10104;50.732;10.174;2023-04-19T01:45:45;17.23;;;8.50;;
19883;SDS011;10104;50.732;10.174;2023-04-19T01:48:06;10.47;;;8.10;;
19883;SDS011;10104;50.732;10.174;2023-04-19T01:50:28;10.60;;;8.00;;
19883;SDS011;10104;50.732;10.174;2023-04-19T01:52:49;10.80;;;8.00;;
19883;SDS011;10104;50.732;10.174;2023-04-19T01:55:11;10.40;;;8.60;;
19883;SDS011;10104;50.732;10.174;2023-04-19T01:57:32;9.60;;;8.40;;
19883;SDS011;10104;50.732;10.174;2023-04-19T01:59:54;10.03;;;8.00;;
19883;SDS011;10104;50.732;10.174;2023-04-19T02:02:15;11.90;;;8.53;;
19883;SDS011;10104;50.732;10.174;2023-04-19T02:04:37;9.03;;;7.67;;
19883;SDS011;10104;50.732;10.174;2023-04-19T02:06:58;10.73;;;7.80;;
19883;SDS011;10104;50.732;10.174;2023-04-19T02:09:20;9.53;;;7.67;;
19883;SDS011;10104;50.732;10.174;2023-04-19T02:11:41;11.40;;;8.27;;
19883;SDS011;10104;50.732;10.174;2023-04-19T02:14:03;10.07;;;8.13;;
19883;SDS011;10104;50.732;10.174;2023-04-19T02:16:24;18.03;;;10.57;;
19883;SDS011;10104;50.732;10.174;2023-04-19T02:18:46;16.30;;;10.10;;
19883;SDS011;10104;50.732;10.174;2023-04-19T02:21:08;19.47;;;11.27;;
19883;SDS011;10104;50.732;10.174;2023-04-19T02:23:31;13.50;;;9.60;;
19883;SDS011;10104;50.732;10.174;2023-04-19T02:25:52;11.50;;;8.47;;
19883;SDS011;10104;50.732;10.174;2023-04-19T02:28:14;11.27;;;7.90;;
19883;SDS011;10104;50.732;10.174;2023-04-19T02:30:35;12.43;;;7.93;;
19883;SDS011;10104;50.732;10.174;2023-04-19T02:32:57;8.83;;;6.97;;
19883;SDS011;10104;50.732;10.174;2023-04-19T02:35:19;9.63;;;7.47;;
19883;SDS011;10104;50.732;10.174;2023-04-19T02:37:40;9.90;;;7.90;;
19883;SDS011;10104;50.732;10.174;2023-04-19T02:40:02;9.13;;;8.17;;
19883;SDS011;10104;50.732;10.174;2023-04-19T02:42:25;11.20;;;7.43;;
19883;SDS011;10104;50.732;10.174;2023-04-19T02:44:47;10.07;;;7.60;;
19883;SDS011;10104;50.732;10.174;2023-04-19T02:47:08;10.57;;;7.40;;
19883;SDS011;10104;50.732;10.174;2023-04-19T02:49:29;9.33;;;7.20;;
19883;SDS011;10104;50.732;10.174;2023-04-19T02:51:58;9.73;;;7.57;;
19883;SDS011;10104;50.732;10.174;2023-04-19T02:54:19;9.23;;;7.20;;
19883;SDS011;10104;50.732;10.174;2023-04-19T02:56:41;8.40;;;7.50;;
19883;SDS011;10104;50.732;10.174;2023-04-19T02:59:02;9.10;;;7.17;;
19883;SDS011;10104;50.732;10.174;2023-04-19T03:01:24;8.00;;;7.07;;
19883;SDS011;10104;50.732;10.174;2023-04-19T03:03:46;9.53;;;7.40;;
19883;SDS011;10104;50.732;10.174;2023-04-19T03:06:08;9.73;;;7.90;;
19883;SDS011;10104;50.732;10.174;2023-04-19T03:08:29;10.03;;;7.17;;
19883;SDS011;10104;50.732;10.174;2023-04-19T03:10:51;8.87;;;7.60;;
19883;SDS011;10104;50.732;10.174;2023-04-19T03:13:12;9.33;;;7.30;;
19883;SDS011;10104;50.732;10.174;2023-04-19T03:15:34;8.30;;;7.10;;
19883;SDS011;10104;50.732;10.174;2023-04-19T03:17:55;9.80;;;8.17;;
19883;SDS011;10104;50.732;10.174;2023-04-19T03:20:17;10.90;;;8.80;;
19883;SDS011;10104;50.732;10.174;2023-04-19T03:22:39;11.70;;;9.60;;
19883;SDS011;10104;50.732;10.174;2023-04-19T03:25:00;10.87;;;9.27;;
19883;SDS011;10104;50.732;10.174;2023-04-19T03:27:22;10.33;;;9.23;;
19883;SDS011;10104;50.732;10.174;2023-04-19T03:29:43;11.00;;;9.30;;
19883;SDS011;10104;50.732;10.174;2023-04-19T03:32:08;12.83;;;9.10;;
19883;SDS011;10104;50.732;10.174;2023-04-19T03:34:29;13.00;;;9.10;;
19883;SDS011;10104;50.732;10.174;2023-04-19T03:36:51;12.53;;;8.60;;
19883;SDS011;10104;50.732;10.174;2023-04-19T03:39:12;10.77;;;9.00;;
19883;SDS011;10104;50.732;10.174;2023-04-19T03:41:34;9.67;;;8.40;;
19883;SDS011;10104;50.732;10.174;2023-04-19T03:43:55;11.70;;;8.13;;
19883;SDS011;10104;50.732;10.174;2023-04-19T03:46:18;9.77;;;7.03;;
19883;SDS011;10104;50.732;10.174;2023-04-19T03:48:39;11.77;;;8.00;;
19883;SDS011;10104;50.732;10.174;2023-04-19T03:51:01;9.07;;;7.37;;
19883;SDS011;10104;50.732;10.174;2023-04-19T03:53:22;8.50;;;7.10;;
19883;SDS011;10104;50.732;10.174;2023-04-19T03:55:44;9.27;;;7.07;;
19883;SDS011;10104;50.732;10.174;2023-04-19T03:58:06;10.17;;;7.37;;
19883;SDS011;10104;50.732;10.174;2023-04-19T04:00:27;8.60;;;6.63;;
19883;SDS011;10104;50.732;10.174;2023-04-19T04:02:48;9.47;;;7.17;;
19883;SDS011;10104;50.732;10.174;2023-04-19T04:05:11;9.70;;;7.00;;
19883;SDS011;10104;50.732;10.174;2023-04-19T04:07:32;8.73;;;6.40;;
19883;SDS011;10104;50.732;10.174;2023-04-19T04:09:54;7.03;;;6.33;;
19883;SDS011;10104;50.732;10.174;2023-04-19T04:12:15;9.33;;;5.80;;
19883;SDS011;10104;50.732;10.174;2023-04-19T04:14:37;8.07;;;5.87;;
19883;SDS011;10104;50.732;10.174;2023-04-19T04:16:58;6.93;;;6.23;;
19883;SDS011;10104;50.732;10.174;2023-04-19T04:19:20;7.43;;;6.03;;
19883;SDS011;10104;50.732;10.174;2023-04-19T04:21:42;8.40;;;5.93;;
19883;SDS011;10104;50.732;10.174;2023-04-19T04:24:03;7.97;;;5.30;;
19883;SDS011;10104;50.732;10.174;2023-04-19T04:26:25;6.40;;;5.47;;
19883;SDS011;10104;50.732;10.174;2023-04-19T04:28:50;7.90;;;5.67;;
19883;SDS011;10104;50.732;10.174;2023-04-19T04:31:12;7.83;;;5.33;;
19883;SDS011;10104;50.732;10.174;2023-04-19T04:33:33;7.27;;;5.10;;
19883;SDS011;10104;50.732;10.174;2023-04-19T04:35:56;8.33;;;6.00;;
19883;SDS011;10104;50.732;10.174;2023-04-19T04:38:19;12.17;;;7.67;;
19883;SDS011;10104;50.732;10.174;2023-04-19T04:40:48;10.00;;;6.10;;
19883;SDS011;10104;50.732;10.174;2023-04-19T04:43:12;9.03;;;5.30;;
19883;SDS011;10104;50.732;10.174;2023-04-19T04:45:34;6.20;;;5.33;;
19883;SDS011;10104;50.732;10.174;2023-04-19T04:47:55;7.23;;;5.70;;
19883;SDS011;10104;50.732;10.174;2023-04-19T04:50:17;7.50;;;5.40;;
19883;SDS011;10104;50.732;10.174;2023-04-19T04:52:38;9.23;;;6.20;;
19883;SDS011;10104;50.732;10.174;2023-04-19T04:55:00;6.93;;;5.23;;
19883;SDS011;10104;50.732;10.174;2023-04-19T04:57:21;6.63;;;5.73;;
19883;SDS011;10104;50.732;10.174;2023-04-19T04:59:43;9.53;;;5.80;;
19883;SDS011;10104;50.732;10.174;2023-04-19T05:02:05;12.10;;;7.37;;
19883;SDS011;10104;50.732;10.174;2023-04-19T05:04:26;8.87;;;6.43;;
19883;SDS011;10104;50.732;10.174;2023-04-19T05:06:48;7.43;;;5.97;;
19883;SDS011;10104;50.732;10.174;2023-04-19T05:09:10;7.57;;;6.30;;
19883;SDS011;10104;50.732;10.174;2023-04-19T05:11:32;7.83;;;5.73;;
19883;SDS011;10104;50.732;10.174;2023-04-19T05:13:53;8.73;;;6.90;;
19883;SDS011;10104;50.732;10.174;2023-04-19T05:16:15;8.37;;;6.00;;
19883;SDS011;10104;50.732;10.174;2023-04-19T05:18:36;8.10;;;6.40;;
19883;SDS011;10104;50.732;10.174;2023-04-19T05:20:58;7.17;;;6.30;;
19883;SDS011;10104;50.732;10.174;2023-04-19T05:23:19;8.67;;;6.57;;
19883;SDS011;10104;50.732;10.174;2023-04-19T05:25:41;9.33;;;7.00;;
19883;SDS011;10104;50.732;10.174;2023-04-19T05:28:03;8.07;;;6.43;;
19883;SDS011;10104;50.732;10.174;2023-04-19T05:30:24;7.57;;;6.17;;
19883;SDS011;10104;50.732;10.174;2023-04-19T05:32:46;12.37;;;6.53;;
19883;SDS011;10104;50.732;10.174;2023-04-19T05:35:08;8.53;;;6.90;;
19883;SDS011;10104;50.732;10.174;2023-04-19T05:37:29;7.20;;;5.87;;
19883;SDS011;10104;50.732;10.174;2023-04-19T05:39:51;10.40;;;7.07;;
19883;SDS011;10104;50.732;10.174;2023-04-19T05:42:12;8.07;;;6.53;;
19883;SDS011;10104;50.732;10.174;2023-04-19T05:44:34;8.20;;;6.70;;
19883;SDS011;10104;50.732;10.174;2023-04-19T05:46:55;8.60;;;6.40;;
19883;SDS011;10104;50.732;10.174;2023-04-19T05:49:17;10.67;;;7.23;;
19883;SDS011;10104;50.732;10.174;2023-04-19T05:51:39;9.77;;;6.73;;
19883;SDS011;10104;50.732;10.174;2023-04-19T05:54:00;9.57;;;7.10;;
19883;SDS011;10104;50.732;10.174;2023-04-19T05:56:22;9.50;;;6.37;;
19883;SDS011;10104;50.732;10.174;2023-04-19T05:58:43;8.07;;;6.47;;
19883;SDS011;10104;50.732;10.174;2023-04-19T06:01:05;10.10;;;6.60;;
19883;SDS011;10104;50.732;10.174;2023-04-19T06:03:27;11.23;;;6.90;;
19883;SDS011;10104;50.732;10.174;2023-04-19T06:05:52;7.73;;;6.40;;
19883;SDS011;10104;50.732;10.174;2023-04-19T06:08:14;9.93;;;6.13;;
19883;SDS011;10104;50.732;10.174;2023-04-19T06:10:37;8.03;;;6.23;;
19883;SDS011;10104;50.732;10.174;2023-04-19T06:13:17;8.27;;;6.10;;
19883;SDS011;10104;50.732;10.174;2023-04-19T06:15:38;9.17;;;6.57;;
19883;SDS011;10104;50.732;10.174;2023-04-19T06:18:00;11.37;;;6.73;;
19883;SDS011;10104;50.732;10.174;2023-04-19T06:20:21;9.20;;;6.40;;
19883;SDS011;10104;50.732;10.174;2023-04-19T06:22:44;10.83;;;6.33;;
19883;SDS011;10104;50.732;10.174;2023-04-19T06:25:06;13.33;;;7.17;;
19883;SDS011;10104;50.732;10.174;2023-04-19T06:27:28;12.97;;;7.27;;
19883;SDS011;10104;50.732;10.174;2023-04-19T06:29:49;8.30;;;5.77;;
19883;SDS011;10104;50.732;10.174;2023-04-19T06:32:11;11.30;;;7.37;;
19883;SDS011;10104;50.732;10.174;2023-04-19T06:34:33;14.07;;;8.30;;
19883;SDS011;10104;50.732;10.174;2023-04-19T06:36:54;12.87;;;8.70;;
19883;SDS011;10104;50.732;10.174;2023-04-19T06:39:16;11.97;;;8.00;;
19883;SDS011;10104;50.732;10.174;2023-04-19T06:41:38;14.53;;;7.30;;
19883;SDS011;10104;50.732;10.174;2023-04-19T06:43:59;10.30;;;6.47;;
19883;SDS011;10104;50.732;10.174;2023-04-19T06:46:20;8.33;;;6.13;;
19883;SDS011;10104;50.732;10.174;2023-04-19T06:48:42;11.13;;;7.00;;
19883;SDS011;10104;50.732;10.174;2023-04-19T06:51:04;10.83;;;6.70;;
19883;SDS011;10104;50.732;10.174;2023-04-19T06:53:25;8.57;;;6.53;;
19883;SDS011;10104;50.732;10.174;2023-04-19T06:55:47;11.20;;;6.90;;
19883;SDS011;10104;50.732;10.174;2023-04-19T06:58:09;10.90;;;6.40;;
19883;SDS011;10104;50.732;10.174;2023-04-19T07:00:31;10.47;;;6.73;;
19883;SDS011;10104;50.732;10.174;2023-04-19T07:02:52;9.20;;;6.60;;
19883;SDS011;10104;50.732;10.174;2023-04-19T07:05:14;11.47;;;6.27;;
19883;SDS011;10104;50.732;10.174;2023-04-19T07:07:36;7.80;;;6.30;;
19883;SDS011;10104;50.732;10.174;2023-04-19T07:09:58;9.53;;;6.50;;
19883;SDS011;10104;50.732;10.174;2023-04-19T07:12:19;9.43;;;6.47;;
19883;SDS011;10104;50.732;10.174;2023-04-19T07:14:41;9.83;;;7.10;;
19883;SDS011;10104;50.732;10.174;2023-04-19T07:17:03;10.20;;;5.97;;
19883;SDS011;10104;50.732;10.174;2023-04-19T07:19:25;8.80;;;6.13;;
19883;SDS011;10104;50.732;10.174;2023-04-19T07:21:48;9.73;;;6.43;;
19883;SDS011;10104;50.732;10.174;2023-04-19T07:24:10;10.17;;;6.03;;
19883;SDS011;10104;50.732;10.174;2023-04-19T07:26:32;9.60;;;5.80;;
19883;SDS011;10104;50.732;10.174;2023-04-19T07:28:54;7.53;;;5.13;;
19883;SDS011;10104;50.732;10.174;2023-04-19T07:31:17;7.67;;;4.60;;
19883;SDS011;10104;50.732;10.174;2023-04-19T07:33:39;5.77;;;4.17;;
19883;SDS011;10104;50.732;10.174;2023-04-19T07:36:00;10.20;;;4.33;;
19883;SDS011;10104;50.732;10.174;2023-04-19T07:38:22;5.97;;;3.90;;
19883;SDS011;10104;50.732;10.174;2023-04-19T07:40:45;9.00;;;3.93;;
19883;SDS011;10104;50.732;10.174;2023-04-19T07:43:06;8.33;;;3.97;;
19883;SDS011;10104;50.732;10.174;2023-04-19T07:45:29;5.77;;;3.53;;
19883;SDS011;10104;50.732;10.174;2023-04-19T07:47:50;7.57;;;4.03;;
19883;SDS011;10104;50.732;10.174;2023-04-19T07:50:12;7.07;;;3.73;;
19883;SDS011;10104;50.732;10.174;2023-04-19T07:52:33;6.33;;;4.23;;
19883;SDS011;10104;50.732;10.174;2023-04-19T07:54:55;7.50;;;4.20;;
19883;SDS011;10104;50.732;10.174;2023-04-19T07:57:17;7.90;;;4.00;;
19883;SDS011;10104;50.732;10.174;2023-04-19T07:59:38;8.37;;;4.50;;
19883;SDS011;10104;50.732;10.174;2023-04-19T08:02:00;10.40;;;4.53;;
19883;SDS011;10104;50.732;10.174;2023-04-19T08:04:21;7.83;;;4.23;;
19883;SDS011;10104;50.732;10.174;2023-04-19T08:06:44;6.57;;;4.20;;
19883;SDS011;10104;50.732;10.174;2023-04-19T08:09:05;5.20;;;3.80;;
19883;SDS011;10104;50.732;10.174;2023-04-19T08:11:27;6.47;;;2.60;;
19883;SDS011;10104;50.732;10.174;2023-04-19T08:13:48;4.73;;;2.53;;
19883;SDS011;10104;50.732;10.174;2023-04-19T08:16:29;4.10;;;2.43;;
19883;SDS011;10104;50.732;10.174;2023-04-19T08:19:10;5.27;;;2.60;;
19883;SDS011;10104;50.732;10.174;2023-04-19T08:21:32;7.17;;;2.77;;
19883;SDS011;10104;50.732;10.174;2023-04-19T08:24:01;6.43;;;2.60;;
19883;SDS011;10104;50.732;10.174;2023-04-19T08:26:23;10.27;;;2.60;;
19883;SDS011;10104;50.732;10.174;2023-04-19T08:28:46;4.80;;;2.60;;
19883;SDS011;10104;50.732;10.174;2023-04-19T08:31:09;3.20;;;2.40;;
19883;SDS011;10104;50.732;10.174;2023-04-19T08:33:31;3.80;;;2.27;;
19883;SDS011;10104;50.732;10.174;2023-04-19T08:35:53;7.87;;;4.00;;
19883;SDS011;10104;50.732;10.174;2023-04-19T08:38:14;12.53;;;6.87;;
19883;SDS011;10104;50.732;10.174;2023-04-19T08:40:38;5.50;;;3.90;;
19883;SDS011;10104;50.732;10.174;2023-04-19T08:43:05;10.30;;;5.90;;
19883;SDS011;10104;50.732;10.174;2023-04-19T08:45:27;7.37;;;2.97;;
19883;SDS011;10104;50.732;10.174;2023-04-19T08:47:49;12.17;;;6.97;;
19883;SDS011;10104;50.732;10.174;2023-04-19T08:50:22;6.30;;;4.33;;
19883;SDS011;10104;50.732;10.174;2023-04-19T08:52:57;7.37;;;3.70;;
19883;SDS011;10104;50.732;10.174;2023-04-19T08:55:41;3.30;;;2.40;;
19883;SDS011;10104;50.732;10.174;2023-04-19T08:58:26;9.67;;;5.40;;
19883;SDS011;10104;50.732;10.174;2023-04-19T09:00:53;6.87;;;3.90;;
19883;SDS011;10104;50.732;10.174;2023-04-19T09:03:14;12.33;;;7.20;;
19883;SDS011;10104;50.732;10.174;2023-04-19T09:05:37;17.00;;;11.87;;
19883;SDS011;10104;50.732;10.174;2023-04-19T09:10:59;6.80;;;3.87;;
19883;SDS011;10104;50.732;10.174;2023-04-19T09:13:21;4.47;;;3.13;;
19883;SDS011;10104;50.732;10.174;2023-04-19T09:15:43;4.97;;;3.20;;
19883;SDS011;10104;50.732;10.174;2023-04-19T09:18:06;4.10;;;2.73;;
19883;SDS011;10104;50.732;10.174;2023-04-19T09:23:02;4.60;;;2.57;;
19883;SDS011;10104;50.732;10.174;2023-04-19T09:25:27;3.53;;;2.30;;
19883;SDS011;10104;50.732;10.174;2023-04-19T09:28:10;3.53;;;2.33;;
19883;SDS011;10104;50.732;10.174;2023-04-19T09:30:32;4.37;;;2.17;;
19883;SDS011;10104;50.732;10.174;2023-04-19T09:33:03;6.77;;;2.40;;
19883;SDS011;10104;50.732;10.174;2023-04-19T09:35:46;3.83;;;2.00;;
19883;SDS011;10104;50.732;10.174;2023-04-19T09:38:09;3.07;;;2.27;;
19883;SDS011;10104;50.732;10.174;2023-04-19T09:40:32;5.40;;;2.30;;
19883;SDS011;10104;50.732;10.174;2023-04-19T09:42:53;3.77;;;2.20;;
19883;SDS011;10104;50.732;10.174;2023-04-19T09:45:39;3.50;;;2.07;;
19883;SDS011;10104;50.732;10.174;2023-04-19T09:48:02;3.07;;;2.00;;
19883;SDS011;10104;50.732;10.174;2023-04-19T09:50:25;3.87;;;2.20;;
19883;SDS011;10104;50.732;10.174;2023-04-19T09:52:47;2.50;;;2.10;;
19883;SDS011;10104;50.732;10.174;2023-04-19T09:55:10;5.13;;;2.30;;
19883;SDS011;10104;50.732;10.174;2023-04-19T09:57:47;3.47;;;1.90;;
19883;SDS011;10104;50.732;10.174;2023-04-19T10:00:09;5.00;;;2.50;;
19883;SDS011;10104;50.732;10.174;2023-04-19T10:02:33;3.23;;;2.37;;
19883;SDS011;10104;50.732;10.174;2023-04-19T10:04:56;7.77;;;2.70;;
19883;SDS011;10104;50.732;10.174;2023-04-19T10:07:38;5.60;;;2.50;;
19883;SDS011;10104;50.732;10.174;2023-04-19T10:10:00;3.40;;;2.40;;
19883;SDS011;10104;50.732;10.174;2023-04-19T10:12:40;4.17;;;2.23;;
19883;SDS011;10104;50.732;10.174;2023-04-19T10:15:21;3.70;;;2.00;;
19883;SDS011;10104;50.732;10.174;2023-04-19T10:17:43;5.50;;;2.40;;
19883;SDS011;10104;50.732;10.174;2023-04-19T10:20:06;3.77;;;2.43;;
19883;SDS011;10104;50.732;10.174;2023-04-19T10:22:33;4.70;;;2.20;;
19883;SDS011;10104;50.732;10.174;2023-04-19T10:25:09;4.07;;;2.13;;
19883;SDS011;10104;50.732;10.174;2023-04-19T10:27:33;3.07;;;2.33;;
19883;SDS011;10104;50.732;10.174;2023-04-19T10:29:55;3.60;;;2.00;;
19883;SDS011;10104;50.732;10.174;2023-04-19T10:32:28;3.87;;;2.27;;
19883;SDS011;10104;50.732;10.174;2023-04-19T10:35:00;7.23;;;2.30;;
19883;SDS011;10104;50.732;10.174;2023-04-19T10:37:24;4.93;;;2.13;;
19883;SDS011;10104;50.732;10.174;2023-04-19T10:39:46;4.87;;;2.20;;
19883;SDS011;10104;50.732;10.174;2023-04-19T10:42:08;5.87;;;2.10;;
19883;SDS011;10104;50.732;10.174;2023-04-19T10:44:29;3.10;;;2.23;;
19883;SDS011;10104;50.732;10.174;2023-04-19T10:46:51;2.70;;;2.40;;
19883;SDS011;10104;50.732;10.174;2023-04-19T10:49:12;4.77;;;2.43;;
19883;SDS011;10104;50.732;10.174;2023-04-19T10:51:35;5.70;;;2.63;;
19883;SDS011;10104;50.732;10.174;2023-04-19T10:54:03;4.03;;;2.40;;
19883;SDS011;10104;50.732;10.174;2023-04-19T11:01:31;4.07;;;2.20;;
19883;SDS011;10104;50.732;10.174;2023-04-19T11:04:06;3.30;;;2.77;;
19883;SDS011;10104;50.732;10.174;2023-04-19T11:06:29;6.40;;;2.30;;
19883;SDS011;10104;50.732;10.174;2023-04-19T11:08:51;2.93;;;2.50;;
19883;SDS011;10104;50.732;10.174;2023-04-19T11:11:13;5.40;;;2.47;;
19883;SDS011;10104;50.732;10.174;2023-04-19T11:13:35;10.73;;;2.73;;
19883;SDS011;10104;50.732;10.174;2023-04-19T11:15:57;6.03;;;2.60;;
19883;SDS011;10104;50.732;10.174;2023-04-19T11:18:19;3.80;;;2.47;;
19883;SDS011;10104;50.732;10.174;2023-04-19T11:20:41;6.87;;;2.70;;
19883;SDS011;10104;50.732;10.174;2023-04-19T11:23:03;4.50;;;2.67;;
19883;SDS011;10104;50.732;10.174;2023-04-19T11:25:36;3.97;;;2.23;;
19883;SDS011;10104;50.732;10.174;2023-04-19T11:27:58;3.10;;;2.30;;
19883;SDS011;10104;50.732;10.174;2023-04-19T11:30:21;3.40;;;2.20;;
19883;SDS011;10104;50.732;10.174;2023-04-19T11:32:51;3.83;;;2.80;;
19883;SDS011;10104;50.732;10.174;2023-04-19T11:35:13;3.30;;;2.70;;
19883;SDS011;10104;50.732;10.174;2023-04-19T11:37:37;4.63;;;2.10;;
19883;SDS011;10104;50.732;10.174;2023-04-19T11:39:59;4.60;;;2.47;;
19883;SDS011;10104;50.732;10.174;2023-04-19T11:42:24;6.70;;;2.57;;
19883;SDS011;10104;50.732;10.174;2023-04-19T11:44:49;2.97;;;2.43;;
19883;SDS011;10104;50.732;10.174;2023-04-19T11:47:12;5.37;;;2.60;;
19883;SDS011;10104;50.732;10.174;2023-04-19T11:49:33;4.43;;;2.45;;
19883;SDS011;10104;50.732;10.174;2023-04-19T11:51:58;2.73;;;2.30;;
19883;SDS011;10104;50.732;10.174;2023-04-19T11:54:24;3.00;;;2.50;;
19883;SDS011;10104;50.732;10.174;2023-04-19T11:56:57;4.55;;;2.90;;
19883;SDS011;10104;50.732;10.174;2023-04-19T11:59:25;2.63;;;2.40;;
19883;SDS011;10104;50.732;10.174;2023-04-19T12:01:47;3.67;;;2.70;;
19883;SDS011;10104;50.732;10.174;2023-04-19T12:04:09;8.25;;;2.88;;
19883;SDS011;10104;50.732;10.174;2023-04-19T12:06:32;5.90;;;2.70;;
19883;SDS011;10104;50.732;10.174;2023-04-19T12:08:54;4.90;;;2.58;;
19883;SDS011;10104;50.732;10.174;2023-04-19T12:11:17;5.68;;;2.33;;
19883;SDS011;10104;50.732;10.174;2023-04-19T12:13:40;4.38;;;2.28;;
19883;SDS011;10104;50.732;10.174;2023-04-19T12:16:01;4.85;;;2.70;;
19883;SDS011;10104;50.732;10.174;2023-04-19T12:18:23;7.03;;;2.85;;
19883;SDS011;10104;50.732;10.174;2023-04-19T12:20:46;6.47;;;2.70;;
19883;SDS011;10104;50.732;10.174;2023-04-19T12:23:10;5.75;;;3.08;;
19883;SDS011;10104;50.732;10.174;2023-04-19T12:25:34;3.97;;;3.10;;
19883;SDS011;10104;50.732;10.174;2023-04-19T12:27:55;6.93;;;2.90;;
19883;SDS011;10104;50.732;10.174;2023-04-19T12:30:17;4.68;;;2.70;;
19883;SDS011;10104;50.732;10.174;2023-04-19T12:32:39;6.00;;;3.00;;
19883;SDS011;10104;50.732;10.174;2023-04-19T12:35:00;3.65;;;3.10;;
19883;SDS011;10104;50.732;10.174;2023-04-19T12:37:22;3.70;;;3.35;;
19883;SDS011;10104;50.732;10.174;2023-04-19T12:39:43;7.93;;;3.85;;
19883;SDS011;10104;50.732;10.174;2023-04-19T12:42:05;4.43;;;3.28;;
19883;SDS011;10104;50.732;10.174;2023-04-19T12:44:26;6.22;;;3.45;;
19883;SDS011;10104;50.732;10.174;2023-04-19T12:46:48;5.05;;;3.78;;
19883;SDS011;10104;50.732;10.174;2023-04-19T12:49:09;5.13;;;3.50;;
19883;SDS011;10104;50.732;10.174;2023-04-19T12:51:31;5.97;;;2.90;;
19883;SDS011;10104;50.732;10.174;2023-04-19T12:53:53;4.82;;;3.00;;
19883;SDS011;10104;50.732;10.174;2023-04-19T12:56:14;4.03;;;2.60;;
19883;SDS011;10104;50.732;10.174;2023-04-19T12:58:37;5.53;;;3.17;;
19883;SDS011;10104;50.732;10.174;2023-04-19T13:00:58;4.88;;;2.92;;
19883;SDS011;10104;50.732;10.174;2023-04-19T13:03:20;3.83;;;2.90;;
19883;SDS011;10104;50.732;10.174;2023-04-19T13:05:42;6.80;;;2.78;;
19883;SDS011;10104;50.732;10.174;2023-04-19T13:08:04;6.50;;;3.10;;
19883;SDS011;10104;50.732;10.174;2023-04-19T13:10:26;4.10;;;2.97;;
19883;SDS011;10104;50.732;10.174;2023-04-19T13:12:47;4.72;;;2.90;;
19883;SDS011;10104;50.732;10.174;2023-04-19T13:15:09;4.45;;;2.95;;
19883;SDS011;10104;50.732;10.174;2023-04-19T13:17:31;5.82;;;2.75;;
19883;SDS011;10104;50.732;10.174;2023-04-19T13:19:52;6.22;;;3.10;;
19883;SDS011;10104;50.732;10.174;2023-04-19T13:22:14;3.78;;;3.20;;
19883;SDS011;10104;50.732;10.174;2023-04-19T13:24:35;5.03;;;3.03;;
19883;SDS011;10104;50.732;10.174;2023-04-19T13:26:57;5.10;;;2.75;;
19883;SDS011;10104;50.732;10.174;2023-04-19T13:29:18;8.00;;;2.90;;
19883;SDS011;10104;50.732;10.174;2023-04-19T13:31:40;4.10;;;2.72;;
19883;SDS011;10104;50.732;10.174;2023-04-19T13:34:04;4.20;;;2.92;;
19883;SDS011;10104;50.732;10.174;2023-04-19T13:36:25;5.47;;;2.78;;
19883;SDS011;10104;50.732;10.174;2023-04-19T13:38:48;5.10;;;2.95;;
19883;SDS011;10104;50.732;10.174;2023-04-19T13:41:09;4.65;;;2.90;;
19883;SDS011;10104;50.732;10.174;2023-04-19T13:43:31;6.78;;;2.83;;
19883;SDS011;10104;50.732;10.174;2023-04-19T13:45:53;7.40;;;2.70;;
19883;SDS011;10104;50.732;10.174;2023-04-19T13:48:14;4.05;;;2.85;;
19883;SDS011;10104;50.732;10.174;2023-04-19T13:50:36;4.40;;;2.70;;
19883;SDS011;10104;50.732;10.174;2023-04-19T13:52:57;6.65;;;2.92;;
19883;SDS011;10104;50.732;10.174;2023-04-19T13:55:19;6.30;;;2.78;;
19883;SDS011;10104;50.732;10.174;2023-04-19T13:57:41;6.10;;;3.13;;
19883;SDS011;10104;50.732;10.174;2023-04-19T14:00:02;5.35;;;3.28;;
19883;SDS011;10104;50.732;10.174;2023-04-19T14:02:25;4.85;;;2.70;;
19883;SDS011;10104;50.732;10.174;2023-04-19T14:04:46;6.50;;;3.50;;
19883;SDS011;10104;50.732;10.174;2023-04-19T14:07:08;5.72;;;3.25;;
19883;SDS011;10104;50.732;10.174;2023-04-19T14:09:30;5.28;;;3.10;;
19883;SDS011;10104;50.732;10.174;2023-04-19T14:11:51;3.85;;;3.03;;
19883;SDS011;10104;50.732;10.174;2023-04-19T14:14:13;6.22;;;3.78;;